Time;durP1;ratioP1;P1;durP2;ratioP2;P2;SDS_P1;SDS_P2;PMS_P1;PMS_P2;Temp;Humidity;BMP_temperature;BMP_pressure;BME280_temperature;BME280_humidity;BME280_pressure;Samples;Min_cycle;Max_cycle;Signal;HPM_P1;HPM_P2
2023/04/23 00:01:46;;;;;;;20.60;16.08;;;;;;;10.47;96.06;99411.66;5089500;28;20545;-71
2023/04/23 00:04:16;;;;;;;19.95;13.27;;;;;;;10.37;96.54;99412.00;5102110;28;20453;-71
2023/04/23 00:06:42;;;;;;;17.27;12.32;;;;;;;10.25;97.02;99407.13;5082529;28;20031;-71
2023/04/23 00:09:11;;;;;;;19.73;12.80;;;;;;;10.58;97.32;99419.66;5087144;28;20015;-71
2023/04/23 00:11:36;;;;;;;18.55;12.60;;;;;;;10.66;96.78;99418.81;5109919;28;20100;-71
2023/04/23 00:14:02;;;;;;;16.63;12.98;;;;;;;10.46;97.17;99417.59;5103788;28;20031;-71
2023/04/23 00:16:29;;;;;;;16.75;10.68;;;;;;;10.33;96.63;99414.66;5093765;28;20135;-71
2023/04/23 00:18:55;;;;;;;15.40;11.45;;;;;;;10.29;96.81;99415.66;5103178;28;20833;-71
2023/04/23 00:21:20;;;;;;;15.75;9.77;;;;;;;10.20;96.52;99424.09;5111097;28;20024;-71
2023/04/23 00:23:46;;;;;;;14.57;11.00;;;;;;;10.15;96.90;99419.50;5110895;28;20087;-71
2023/04/23 00:26:11;;;;;;;11.43;10.23;;;;;;;10.38;95.91;99433.22;5087072;28;20024;-70
2023/04/23 00:28:37;;;;;;;17.58;10.73;;;;;;;10.34;96.05;99421.06;5085498;28;20031;-71
2023/04/23 00:31:02;;;;;;;10.98;9.73;;;;;;;10.09;96.54;99429.19;5107768;28;20103;-71
2023/04/23 00:33:28;;;;;;;13.05;10.25;;;;;;;10.17;96.28;99436.75;5109818;28;20110;-71
2023/04/23 00:35:53;;;;;;;12.50;9.02;;;;;;;10.17;95.83;99433.94;5107433;28;20043;-71
2023/04/23 00:38:20;;;;;;;12.55;9.57;;;;;;;9.81;96.91;99440.75;5102216;28;20035;-71
2023/04/23 00:40:45;;;;;;;20.98;10.32;;;;;;;9.92;97.73;99444.03;5108643;28;20102;-71
2023/04/23 00:43:11;;;;;;;13.35;8.10;;;;;;;9.87;96.73;99441.41;5108391;28;20042;-71
2023/04/23 00:45:37;;;;;;;13.18;9.27;;;;;;;9.92;96.69;99447.66;5093467;28;20041;-71
2023/04/23 00:48:02;;;;;;;15.73;8.52;;;;;;;10.03;96.55;99455.69;5091157;28;20056;-71
2023/04/23 00:50:28;;;;;;;10.05;8.50;;;;;;;10.19;96.08;99451.19;5092292;28;20110;-71
2023/04/23 00:52:53;;;;;;;14.60;9.00;;;;;;;10.43;94.65;99458.22;5107595;28;20028;-71
2023/04/23 00:55:20;;;;;;;14.80;9.23;;;;;;;10.35;93.24;99439.47;5110253;28;20030;-71
2023/04/23 00:57:46;;;;;;;12.95;9.27;;;;;;;10.27;94.12;99457.13;5074708;28;20027;-71
2023/04/23 01:00:12;;;;;;;10.98;9.20;;;;;;;9.92;95.06;99444.03;5086274;28;20028;-71
2023/04/23 01:02:40;;;;;;;14.48;9.80;;;;;;;10.11;94.84;99457.63;5088858;28;20462;-71
2023/04/23 01:05:08;;;;;;;12.52;9.05;;;;;;;10.30;92.81;99457.25;5110577;28;20031;-71
2023/04/23 01:07:34;;;;;;;10.35;8.30;;;;;;;10.34;92.20;99454.59;5095193;28;20098;-71
2023/04/23 01:10:00;;;;;;;10.73;8.90;;;;;;;10.20;92.34;99447.25;5107134;28;20116;-71
2023/04/23 01:12:26;;;;;;;13.52;8.85;;;;;;;10.26;92.39;99450.69;5084796;28;20043;-71
2023/04/23 01:14:51;;;;;;;10.93;8.15;;;;;;;10.27;91.87;99445.94;5089267;28;20031;-71
2023/04/23 01:17:17;;;;;;;12.90;9.60;;;;;;;10.12;93.38;99445.28;5094013;28;20077;-70
2023/04/23 01:19:42;;;;;;;14.88;9.55;;;;;;;9.84;94.37;99445.69;5090366;28;20035;-71
2023/04/23 01:22:15;;;;;;;13.35;9.93;;;;;;;9.82;94.86;99447.97;5097233;28;20106;-71
2023/04/23 01:24:41;;;;;;;12.85;9.73;;;;;;;9.89;94.89;99451.09;5090575;28;20030;-71
2023/04/23 01:27:08;;;;;;;14.60;10.23;;;;;;;9.90;94.83;99449.97;5097449;28;20024;-71
2023/04/23 01:29:34;;;;;;;14.57;10.65;;;;;;;9.89;95.51;99450.28;5092364;28;20383;-70
2023/04/23 01:32:01;;;;;;;16.02;9.70;;;;;;;10.15;94.06;99455.00;5105911;28;20080;-71
2023/04/23 01:34:29;;;;;;;13.10;9.73;;;;;;;10.17;93.29;99452.69;5092646;28;20055;-71
2023/04/23 01:36:56;;;;;;;16.13;10.57;;;;;;;10.33;92.44;99450.16;5092091;28;20024;-71
2023/04/23 01:39:22;;;;;;;9.60;8.55;;;;;;;10.39;92.00;99455.25;5091227;28;20032;-71
2023/04/23 01:41:47;;;;;;;12.93;9.00;;;;;;;9.95;90.58;99463.75;5090442;28;20417;-70
2023/04/23 01:44:13;;;;;;;14.23;9.55;;;;;;;9.86;91.58;99448.16;5092530;28;20085;-71
2023/04/23 01:46:39;;;;;;;12.10;9.05;;;;;;;9.87;92.77;99467.34;5076500;28;20020;-71
2023/04/23 01:49:05;;;;;;;10.70;9.07;;;;;;;9.76;92.49;99463.25;5101528;28;20035;-70
2023/04/23 01:51:30;;;;;;;13.52;9.77;;;;;;;9.73;92.70;99461.97;5093585;28;20032;-71
2023/04/23 01:53:56;;;;;;;16.42;10.25;;;;;;;9.41;95.01;99462.13;5089027;28;20169;-70
2023/04/23 01:56:25;;;;;;;13.93;11.18;;;;;;;9.35;95.19;99460.63;5102165;28;20024;-70
2023/04/23 01:58:51;;;;;;;14.15;10.30;;;;;;;9.16;96.17;99460.94;5088165;28;20031;-71
2023/04/23 02:01:17;;;;;;;15.65;10.25;;;;;;;9.36;96.08;99465.06;5102408;28;20034;-71
2023/04/23 02:03:43;;;;;;;14.95;9.10;;;;;;;9.30;95.26;99457.19;5096186;28;20032;-71
2023/04/23 02:06:08;;;;;;;10.98;7.53;;;;;;;9.38;94.11;99459.97;5091066;28;20020;-71
2023/04/23 02:08:34;;;;;;;12.07;8.02;;;;;;;9.56;93.69;99462.78;5083937;28;20482;-70
2023/04/23 02:11:00;;;;;;;16.55;8.73;;;;;;;9.75;93.01;99459.66;5080623;28;20024;-71
2023/04/23 02:13:25;;;;;;;20.70;8.95;;;;;;;9.85;90.79;99475.25;5074311;28;20044;-71
2023/04/23 02:15:51;;;;;;;9.52;7.80;;;;;;;10.00;90.65;99464.72;5098634;28;20464;-71
2023/04/23 02:18:16;;;;;;;11.50;8.35;;;;;;;9.98;90.69;99463.06;5093415;28;20067;-70
2023/04/23 02:20:42;;;;;;;16.90;8.40;;;;;;;10.02;90.43;99471.63;5088465;28;20097;-71
2023/04/23 02:23:08;;;;;;;14.43;7.60;;;;;;;10.33;90.03;99475.34;5094740;28;20024;-71
2023/04/23 02:25:37;;;;;;;17.65;8.77;;;;;;;10.44;88.48;99473.00;5088137;28;20027;-71
2023/04/23 02:28:05;;;;;;;15.38;7.60;;;;;;;10.61;87.27;99478.56;5098785;28;20028;-71
2023/04/23 02:30:32;;;;;;;10.35;7.10;;;;;;;10.54;87.64;99478.25;5096373;28;20069;-71
2023/04/23 02:32:58;;;;;;;21.77;7.97;;;;;;;10.53;87.95;99477.44;5081335;28;20035;-70
2023/04/23 02:35:23;;;;;;;10.63;7.18;;;;;;;10.64;85.79;99477.06;5091003;28;20028;-71
2023/04/23 02:37:49;;;;;;;7.53;6.00;;;;;;;10.68;85.28;99480.84;5092356;28;20035;-70
2023/04/23 02:40:15;;;;;;;7.40;6.20;;;;;;;10.62;85.33;99479.41;5089458;28;20118;-72
2023/04/23 02:42:40;;;;;;;9.93;6.85;;;;;;;10.76;85.38;99479.16;5102031;28;20490;-69
2023/04/23 02:45:06;;;;;;;10.43;7.13;;;;;;;10.71;84.85;99477.34;5102516;28;20470;-69
2023/04/23 02:47:32;;;;;;;12.13;6.82;;;;;;;10.73;84.77;99468.66;5098686;28;20085;-69
2023/04/23 02:49:58;;;;;;;12.98;7.40;;;;;;;10.79;84.09;99482.09;5099706;28;20023;-69
2023/04/23 02:52:24;;;;;;;9.25;7.13;;;;;;;10.84;83.99;99481.09;5092268;28;20043;-73
2023/04/23 02:54:49;;;;;;;19.15;7.80;;;;;;;10.79;84.33;99482.09;5098979;28;20130;-71
2023/04/23 02:57:15;;;;;;;7.78;6.93;;;;;;;10.25;84.84;99475.00;5074550;28;20036;-70
2023/04/23 02:59:41;;;;;;;12.10;7.20;;;;;;;10.47;85.09;99484.34;5104991;28;20079;-69
2023/04/23 03:02:07;;;;;;;12.52;8.00;;;;;;;10.47;84.75;99495.53;5105614;28;20055;-69
2023/04/23 03:04:32;;;;;;;10.77;8.48;;;;;;;10.43;85.26;99489.00;5099604;28;20070;-69
2023/04/23 03:06:58;;;;;;;11.32;9.38;;;;;;;10.51;85.25;99487.31;5090650;28;20035;-69
2023/04/23 03:09:23;;;;;;;11.32;10.23;;;;;;;9.87;87.62;99492.50;5095722;28;20024;-70
2023/04/23 03:11:49;;;;;;;14.93;10.45;;;;;;;9.60;90.05;99480.53;5104030;28;20075;-69
2023/04/23 03:14:15;;;;;;;13.32;9.90;;;;;;;9.82;90.41;99493.50;5084426;28;20118;-70
2023/04/23 03:16:40;;;;;;;10.15;9.00;;;;;;;10.08;88.53;99494.63;5097612;28;20027;-70
2023/04/23 03:19:06;;;;;;;13.02;9.88;;;;;;;9.86;88.76;99493.66;5096149;28;20523;-71
2023/04/23 03:21:31;;;;;;;10.63;7.95;;;;;;;9.86;89.39;99495.66;5111238;28;20305;-70
2023/04/23 03:23:57;;;;;;;22.15;10.90;;;;;;;9.90;89.52;99491.03;5097687;28;20028;-69
2023/04/23 03:26:22;;;;;;;10.35;9.25;;;;;;;9.42;91.25;99504.81;5083759;28;20089;-70
2023/04/23 03:28:48;;;;;;;21.67;10.93;;;;;;;9.29;93.96;99498.25;5092506;28;20031;-70
2023/04/23 03:31:13;;;;;;;15.93;11.13;;;;;;;9.13;94.00;99500.66;5079712;28;20032;-70
2023/04/23 03:33:38;;;;;;;21.13;10.82;;;;;;;8.91;95.11;99496.81;5075195;28;20039;-69
2023/04/23 03:36:04;;;;;;;18.98;11.23;;;;;;;8.81;96.61;99491.53;5094033;28;20024;-69
2023/04/23 03:38:29;;;;;;;14.13;10.27;;;;;;;8.72;97.29;99502.66;5093570;28;20028;-70
2023/04/23 03:40:55;;;;;;;17.20;10.40;;;;;;;8.60;98.47;99497.69;5091004;28;20042;-70
2023/04/23 03:43:20;;;;;;;16.63;11.48;;;;;;;8.52;100.00;99501.28;5093539;28;20410;-71
2023/04/23 03:45:46;;;;;;;18.77;11.93;;;;;;;8.90;98.82;99502.72;5111307;28;20108;-70
2023/04/23 03:48:11;;;;;;;12.88;10.75;;;;;;;9.17;98.36;99506.41;5093441;28;20020;-69
2023/04/23 03:50:39;;;;;;;15.90;9.75;;;;;;;9.19;96.39;99507.72;5093372;28;20020;-69
2023/04/23 03:53:05;;;;;;;14.40;9.68;;;;;;;8.92;96.78;99506.00;5090215;28;20413;-69
2023/04/23 03:55:31;;;;;;;15.23;9.45;;;;;;;9.06;96.70;99512.31;5095584;28;20039;-69
2023/04/23 03:57:59;;;;;;;15.13;10.15;;;;;;;9.36;96.19;99520.91;5092054;28;20024;-70
2023/04/23 04:00:24;;;;;;;13.40;9.63;;;;;;;9.45;94.29;99518.13;5095363;28;20383;-69
2023/04/23 04:02:50;;;;;;;14.15;9.75;;;;;;;9.16;95.23;99527.09;5092597;28;20065;-69
2023/04/23 04:05:15;;;;;;;17.02;10.95;;;;;;;9.10;96.78;99521.66;5078332;28;20498;-69
2023/04/23 04:07:41;;;;;;;16.58;12.15;;;;;;;9.30;96.68;99530.59;5094112;28;20028;-69
2023/04/23 04:10:07;;;;;;;19.20;14.02;;;;;;;9.63;95.12;99538.50;5098006;28;20023;-69
2023/04/23 04:12:32;;;;;;;14.07;11.10;;;;;;;9.79;93.91;99538.84;5092980;28;20044;-69
2023/04/23 04:14:58;;;;;;;16.25;11.75;;;;;;;9.93;92.93;99538.69;5088097;28;20027;-69
2023/04/23 04:17:24;;;;;;;15.48;11.43;;;;;;;9.53;93.96;99544.41;5099727;28;20032;-69
2023/04/23 04:19:49;;;;;;;16.77;13.07;;;;;;;9.53;95.21;99561.16;5091611;28;20031;-69
2023/04/23 04:22:15;;;;;;;23.95;13.68;;;;;;;9.53;95.53;99559.19;5097130;28;20482;-70
2023/04/23 04:24:40;;;;;;;13.60;11.68;;;;;;;9.20;96.95;99556.00;5093045;28;20035;-69
2023/04/23 04:27:06;;;;;;;12.73;9.82;;;;;;;9.16;98.84;99543.81;5106585;28;20459;-70
2023/04/23 04:29:32;;;;;;;12.45;9.55;;;;;;;9.28;98.36;99555.19;5095540;28;20050;-70
2023/04/23 04:31:58;;;;;;;12.48;9.70;;;;;;;9.17;99.26;99556.63;5083305;28;20032;-69
2023/04/23 04:34:24;;;;;;;14.38;10.07;;;;;;;9.12;99.47;99561.22;5092806;28;20109;-69
2023/04/23 04:36:52;;;;;;;11.73;10.52;;;;;;;9.37;98.68;99561.63;5097961;28;20352;-69
2023/04/23 04:39:18;;;;;;;14.48;10.55;;;;;;;9.43;98.86;99565.09;5092426;28;20388;-69
2023/04/23 04:41:44;;;;;;;18.85;12.23;;;;;;;9.41;98.59;99568.22;5087460;28;20084;-69
2023/04/23 04:44:10;;;;;;;17.90;12.43;;;;;;;9.71;98.65;99572.38;5100058;28;20478;-69
2023/04/23 04:46:39;;;;;;;18.38;12.77;;;;;;;9.79;96.98;99571.56;5107054;28;20028;-69
2023/04/23 04:49:07;;;;;;;14.88;11.32;;;;;;;9.97;95.52;99583.56;5099668;28;20035;-69
2023/04/23 04:51:32;;;;;;;16.33;11.40;;;;;;;10.18;94.61;99578.13;5095189;28;20115;-70
2023/04/23 04:53:58;;;;;;;15.40;12.60;;;;;;;10.37;93.78;99577.78;5076736;28;20553;-69
2023/04/23 04:56:24;;;;;;;21.55;12.40;;;;;;;10.46;93.07;99575.00;5110683;28;20088;-70
2023/04/23 04:58:50;;;;;;;16.52;11.50;;;;;;;10.49;92.37;99576.31;5093391;28;20024;-70
2023/04/23 05:01:16;;;;;;;19.08;10.93;;;;;;;10.52;91.81;99581.25;5088121;28;20085;-69
2023/04/23 05:03:42;;;;;;;17.75;12.35;;;;;;;10.71;91.69;99580.88;5098824;28;20070;-70
2023/04/23 05:06:08;;;;;;;19.90;11.90;;;;;;;10.88;90.67;99587.59;5074153;28;20055;-72
2023/04/23 05:08:33;;;;;;;18.70;14.77;;;;;;;11.01;90.62;99580.94;5073757;28;20035;-71
2023/04/23 05:11:00;;;;;;;31.90;18.15;;;;;;;10.86;89.99;99575.88;5093799;28;20428;-71
2023/04/23 05:13:26;;;;;;;32.47;18.48;;;;;;;10.85;90.04;99579.84;5109147;28;20134;-70
2023/04/23 05:15:51;;;;;;;27.45;18.15;;;;;;;10.86;89.27;99582.31;5092360;28;22345;-72
2023/04/23 05:18:17;;;;;;;28.00;17.40;;;;;;;10.90;89.63;99593.66;5093990;28;20023;-70
2023/04/23 05:20:42;;;;;;;19.02;14.07;;;;;;;10.97;89.29;99590.34;5109903;28;21563;-71
2023/04/23 05:23:08;;;;;;;21.65;13.27;;;;;;;11.04;88.83;99585.88;5092181;28;20413;-70
2023/04/23 05:25:34;;;;;;;15.50;12.80;;;;;;;10.89;89.74;99589.22;5083668;28;20020;-70
2023/04/23 05:28:00;;;;;;;19.08;12.63;;;;;;;11.01;90.08;99599.72;5110581;28;20137;-70
2023/04/23 05:30:26;;;;;;;15.05;12.10;;;;;;;11.14;90.16;99606.25;5109298;28;20452;-70
2023/04/23 05:32:51;;;;;;;14.73;12.18;;;;;;;11.25;89.28;99599.13;5095203;28;20525;-69
2023/04/23 05:35:17;;;;;;;23.05;15.50;;;;;;;11.41;88.38;99596.59;5098963;28;20113;-69
2023/04/23 05:37:43;;;;;;;23.25;13.70;;;;;;;11.21;88.68;99607.38;5092113;28;20410;-72
2023/04/23 05:40:09;;;;;;;19.88;12.38;;;;;;;11.01;89.64;99600.53;5091991;28;20491;-73
2023/04/23 05:42:35;;;;;;;14.38;11.52;;;;;;;11.03;90.55;99606.63;5090499;28;20034;-73
2023/04/23 05:45:02;;;;;;;17.83;12.52;;;;;;;11.15;89.62;99607.91;5081466;28;20347;-73
2023/04/23 05:47:28;;;;;;;15.02;11.60;;;;;;;11.31;89.35;99602.56;5073125;28;20475;-72
2023/04/23 05:49:56;;;;;;;14.75;11.68;;;;;;;11.56;88.35;99606.38;5101792;28;20551;-73
2023/04/23 05:52:22;;;;;;;20.90;13.18;;;;;;;11.74;86.62;99606.28;5077786;28;20027;-73
2023/04/23 05:54:47;;;;;;;19.15;12.05;;;;;;;11.77;87.28;99608.38;5105533;28;20028;-73
2023/04/23 05:57:13;;;;;;;19.70;13.10;;;;;;;11.94;86.72;99608.28;5111620;28;20410;-73
2023/04/23 05:59:38;;;;;;;17.65;11.80;;;;;;;11.74;86.07;99614.69;5104853;27;20020;-73
2023/04/23 06:02:04;;;;;;;17.38;13.10;;;;;;;11.65;87.60;99611.94;5110501;28;20034;-72
2023/04/23 06:04:29;;;;;;;20.45;13.82;;;;;;;11.61;88.10;99620.19;5111420;28;20402;-73
2023/04/23 06:06:55;;;;;;;20.05;14.75;;;;;;;11.65;88.06;99609.94;5093197;28;20015;-73
2023/04/23 06:09:20;;;;;;;20.17;14.32;;;;;;;12.01;87.58;99606.91;5111343;28;20132;-73
2023/04/23 06:11:46;;;;;;;22.95;15.10;;;;;;;12.42;86.14;99608.06;5073820;28;20048;-72
2023/04/23 06:14:11;;;;;;;19.88;14.00;;;;;;;12.71;84.76;99602.66;5091599;28;20027;-72
2023/04/23 06:16:37;;;;;;;20.95;14.27;;;;;;;13.18;81.54;99604.31;5101798;28;20055;-72
2023/04/23 06:19:02;;;;;;;18.77;13.68;;;;;;;12.57;80.89;99611.41;5097545;28;20032;-71
2023/04/23 06:21:28;;;;;;;21.27;13.65;;;;;;;12.84;80.55;99612.75;5095557;28;20080;-72
2023/04/23 06:23:53;;;;;;;24.13;16.70;;;;;;;12.53;82.97;99599.22;5109916;28;20054;-73
2023/04/23 06:26:19;;;;;;;18.83;15.60;;;;;;;12.73;81.86;99608.75;5073038;28;20028;-72
2023/04/23 06:28:45;;;;;;;22.42;16.27;;;;;;;12.52;82.30;99600.38;5098415;28;20379;-72
2023/04/23 06:31:12;;;;;;;23.60;16.77;;;;;;;12.57;82.61;99615.03;5078439;28;20036;-72
2023/04/23 06:33:37;;;;;;;19.50;14.30;;;;;;;12.81;81.01;99615.47;5099169;28;20846;-70
2023/04/23 06:36:03;;;;;;;24.70;15.25;;;;;;;12.78;79.49;99616.97;5092835;28;20078;-71
2023/04/23 06:38:29;;;;;;;30.90;16.50;;;;;;;12.48;84.32;99612.31;5091171;28;20027;-71
2023/04/23 06:40:54;;;;;;;22.60;14.73;;;;;;;12.73;83.67;99612.41;5095202;28;20028;-72
2023/04/23 06:43:20;;;;;;;23.13;16.38;;;;;;;12.88;82.08;99612.91;5090668;28;20024;-70
2023/04/23 06:45:46;;;;;;;329.15;145.25;;;;;;;12.88;82.09;99607.28;5094812;28;20032;-70
2023/04/23 06:48:11;;;;;;;32.97;19.90;;;;;;;13.00;81.94;99610.13;5093216;28;20024;-69
2023/04/23 06:50:37;;;;;;;22.08;17.75;;;;;;;12.77;82.29;99607.72;5083303;28;20084;-68
2023/04/23 06:53:05;;;;;;;272.98;122.53;;;;;;;13.11;82.25;99607.69;5098581;28;20028;-69
2023/04/23 06:55:31;;;;;;;62.42;31.55;;;;;;;13.42;80.03;99613.91;5094581;28;20438;-73
2023/04/23 06:57:57;;;;;;;131.10;84.28;;;;;;;13.90;77.74;99609.44;5094342;28;20048;-77
2023/04/23 07:00:23;;;;;;;832.20;565.60;;;;;;;14.16;77.92;99613.84;5094392;28;20059;-73
2023/04/23 07:02:48;;;;;;;460.85;352.60;;;;;;;13.90;77.46;99606.66;5093103;28;20030;-71
2023/04/23 07:05:16;;;;;;;206.05;113.45;;;;;;;14.29;76.15;99602.53;5098857;28;20421;-74
2023/04/23 07:07:42;;;;;;;215.93;64.97;;;;;;;14.33;75.69;99611.91;5099895;28;20016;-72
2023/04/23 07:10:08;;;;;;;257.25;78.40;;;;;;;14.38;74.42;99606.03;5095891;28;20031;-74
2023/04/23 07:12:35;;;;;;;634.00;448.55;;;;;;;14.14;75.23;99610.56;5091600;28;20473;-79
2023/04/23 07:15:01;;;;;;;60.20;27.25;;;;;;;13.84;74.73;99610.84;5111410;28;20038;-73
2023/04/23 07:17:26;;;;;;;220.63;147.43;;;;;;;14.38;73.56;99608.84;5090133;28;20053;-71
2023/04/23 07:19:52;;;;;;;44.78;30.75;;;;;;;14.30;72.40;99609.81;5089261;28;20040;-72
2023/04/23 07:22:17;;;;;;;98.93;67.97;;;;;;;14.69;72.25;99609.31;5079885;28;20032;-70
2023/04/23 07:24:43;;;;;;;251.85;162.13;;;;;;;14.48;71.35;99612.31;5093628;28;20115;-69
2023/04/23 07:27:08;;;;;;;261.45;172.98;;;;;;;14.68;71.61;99605.66;5099826;28;20461;-72
2023/04/23 07:29:34;;;;;;;101.50;72.18;;;;;;;15.40;72.74;99598.31;5096491;28;20028;-72
2023/04/23 07:31:59;;;;;;;70.50;18.30;;;;;;;15.76;70.66;99606.78;5093675;28;20032;-71
2023/04/23 07:34:25;;;;;;;885.42;309.10;;;;;;;15.97;67.77;99600.84;5097570;28;20039;-71
2023/04/23 07:36:51;;;;;;;264.65;89.85;;;;;;;16.09;67.94;99610.38;5100954;28;20116;-72
2023/04/23 07:39:17;;;;;;;27.35;19.10;;;;;;;15.97;67.47;99602.88;5100003;28;20027;-73
2023/04/23 07:41:42;;;;;;;37.10;23.50;;;;;;;15.84;67.65;99607.78;5108585;28;20529;-75
2023/04/23 07:44:08;;;;;;;679.38;478.50;;;;;;;15.83;68.44;99606.97;5107281;28;20023;-73
2023/04/23 07:46:33;;;;;;;471.77;365.05;;;;;;;15.84;67.62;99602.13;5086156;28;20027;-72
2023/04/23 07:48:59;;;;;;;41.53;31.75;;;;;;;15.75;67.84;99604.31;5094282;28;20020;-73
2023/04/23 07:51:25;;;;;;;923.75;508.20;;;;;;;15.76;67.61;99601.16;5087461;28;20020;-73
2023/04/23 07:53:55;;;;;;;97.38;71.05;;;;;;;15.49;68.63;99603.75;5075109;28;20069;-72
2023/04/23 07:56:21;;;;;;;1100.22;693.20;;;;;;;15.51;70.10;99607.00;5091799;28;20024;-69
2023/04/23 07:58:47;;;;;;;208.80;123.30;;;;;;;15.79;69.48;99593.97;5109130;28;20063;-71
2023/04/23 08:01:13;;;;;;;489.98;281.13;;;;;;;16.33;67.53;99600.81;5107107;28;20108;-71
2023/04/23 08:03:38;;;;;;;84.40;52.65;;;;;;;16.49;67.53;99597.94;5093671;28;20024;-72
2023/04/23 08:06:04;;;;;;;21.00;15.95;;;;;;;16.50;67.33;99593.91;5095510;28;20031;-72
2023/04/23 08:08:29;;;;;;;21.02;15.55;;;;;;;17.03;66.11;99586.03;5099593;28;20028;-72
2023/04/23 08:10:55;;;;;;;466.00;94.95;;;;;;;17.04;64.06;99594.13;5092702;28;20032;-70
2023/04/23 08:13:21;;;;;;;32.35;18.02;;;;;;;17.08;64.05;99591.38;5104105;28;20056;-72
2023/04/23 08:15:47;;;;;;;48.22;17.23;;;;;;;17.20;61.86;99587.56;5090033;28;20027;-69
2023/04/23 08:18:13;;;;;;;278.52;75.80;;;;;;;17.34;60.99;99596.28;5105145;28;20560;-72
2023/04/23 08:20:39;;;;;;;22.10;14.55;;;;;;;17.25;60.29;99582.41;5089373;28;20032;-74
2023/04/23 08:23:04;;;;;;;180.32;55.60;;;;;;;17.54;61.47;99587.69;5091724;28;20020;-76
2023/04/23 08:25:31;;;;;;;22.02;14.77;;;;;;;17.30;60.01;99586.91;5092455;28;20035;-79
2023/04/23 08:27:57;;;;;;;18.05;12.68;;;;;;;17.03;61.26;99591.69;5087759;28;20487;-74
2023/04/23 08:30:22;;;;;;;21.17;14.07;;;;;;;16.75;64.13;99589.94;5107151;28;20123;-74
2023/04/23 08:32:49;;;;;;;19.23;13.05;;;;;;;16.59;63.14;99585.19;5100373;28;20032;-71
2023/04/23 08:35:15;;;;;;;446.00;112.97;;;;;;;16.89;61.18;99587.38;5082059;28;20034;-71
2023/04/23 08:37:40;;;;;;;112.13;63.92;;;;;;;17.34;61.65;99575.66;5077420;28;20027;-74
2023/04/23 08:40:07;;;;;;;18.95;14.95;;;;;;;17.45;58.63;99579.47;5093087;28;20043;-71
2023/04/23 08:42:55;;;;;;;15.20;12.63;;;;;;;17.46;58.34;99575.44;5094758;28;20105;-73
2023/04/23 08:45:21;;;;;;;19.67;12.32;;;;;;;17.63;57.24;99567.63;5109448;28;20030;-74
2023/04/23 08:47:46;;;;;;;14.82;12.93;;;;;;;17.66;57.69;99573.31;5099298;28;20078;-73
2023/04/23 08:50:15;;;;;;;16.63;13.80;;;;;;;17.82;56.74;99564.66;5094228;28;20479;-73
2023/04/23 08:52:44;;;;;;;18.55;12.85;;;;;;;17.80;57.33;99567.06;5102185;28;20023;-74
2023/04/23 08:55:09;;;;;;;20.52;14.30;;;;;;;17.57;59.02;99558.66;5104891;28;20092;-73
2023/04/23 08:57:39;;;;;;;17.67;12.20;;;;;;;17.93;56.97;99564.00;5086462;28;20095;-76
2023/04/23 09:00:07;;;;;;;;;;;;;;;18.34;56.18;99555.69;5076660;28;20116;-73
2023/04/23 09:02:34;;;;;;;24.15;12.90;;;;;;;18.29;54.32;99552.38;5092170;28;20314;-74
2023/04/23 09:05:03;;;;;;;16.73;11.75;;;;;;;18.39;55.19;99551.69;5103500;28;20129;-75
2023/04/23 09:07:29;;;;;;;16.17;11.70;;;;;;;18.60;56.57;99556.78;5097187;28;20027;-74
2023/04/23 09:09:55;;;;;;;23.92;13.85;;;;;;;18.88;54.52;99552.59;5091935;28;20035;-73
2023/04/23 09:12:21;;;;;;;22.52;12.63;;;;;;;19.06;54.37;99549.97;5083119;28;20126;-72
2023/04/23 09:14:49;;;;;;;15.57;11.45;;;;;;;18.76;52.96;99552.91;5093505;28;20028;-69
2023/04/23 09:17:15;;;;;;;16.73;10.27;;;;;;;18.63;53.69;99547.50;5088374;28;20063;-70
2023/04/23 09:19:41;;;;;;;17.20;11.82;;;;;;;18.46;55.73;99539.63;5093982;28;20066;-68
2023/04/23 09:22:08;;;;;;;27.30;11.80;;;;;;;17.31;55.52;99539.66;5092179;28;20039;-68
2023/04/23 09:24:33;;;;;;;16.60;12.02;;;;;;;17.40;55.93;99538.19;5098412;28;20084;-69
2023/04/23 09:26:59;;;;;;;18.27;12.18;;;;;;;17.80;56.80;99544.44;5110903;28;20027;-71
2023/04/23 09:29:25;;;;;;;25.13;12.00;;;;;;;17.25;57.95;99536.34;5108907;28;20073;-71
2023/04/23 09:31:54;;;;;;;15.98;12.38;;;;;;;17.66;57.77;99538.59;5104842;28;20450;-70
2023/04/23 09:34:22;;;;;;;17.52;13.32;;;;;;;17.62;56.40;99541.34;5107550;28;20028;-71
2023/04/23 09:36:50;;;;;;;15.65;13.02;;;;;;;17.44;57.98;99532.59;5090412;28;20051;-73
2023/04/23 09:39:17;;;;;;;22.88;13.93;;;;;;;18.12;54.94;99531.16;5098217;28;20092;-73
2023/04/23 09:41:46;;;;;;;17.20;12.85;;;;;;;18.58;53.91;99533.72;5089173;28;20145;-73
2023/04/23 09:44:17;;;;;;;17.27;12.65;;;;;;;18.14;53.45;99531.56;5076535;28;20042;-74
2023/04/23 09:46:43;;;;;;;14.55;12.73;;;;;;;18.29;52.98;99527.72;5085921;28;20058;-72
2023/04/23 09:49:09;;;;;;;18.05;14.07;;;;;;;18.66;51.67;99524.06;5087092;28;20032;-75
2023/04/23 09:51:39;;;;;;;16.88;13.07;;;;;;;18.91;52.30;99514.97;5101645;28;20058;-75
2023/04/23 09:54:19;;;;;;;27.60;14.02;;;;;;;18.70;54.05;99515.59;5091316;28;20112;-76
2023/04/23 09:56:49;;;;;;;18.58;12.77;;;;;;;18.89;50.56;99508.91;5096136;28;20031;-74
2023/04/23 09:59:29;;;;;;;22.35;12.95;;;;;;;19.36;50.63;99500.78;5099913;28;20023;-73
2023/04/23 10:01:55;;;;;;;15.07;10.13;;;;;;;19.25;46.80;99510.44;5088260;28;20421;-75
2023/04/23 10:04:22;;;;;;;17.35;12.02;;;;;;;19.16;49.41;99510.78;5094458;28;20027;-75
2023/04/23 10:06:56;;;;;;;13.23;9.43;;;;;;;19.15;46.26;99501.44;5105228;28;20512;-75
2023/04/23 10:09:23;;;;;;;22.17;12.10;;;;;;;19.48;51.46;99499.66;5091341;28;20028;-75
2023/04/23 10:11:57;;;;;;;13.68;10.43;;;;;;;19.71;50.05;99497.75;5094712;28;20048;-75
2023/04/23 10:14:24;;;;;;;15.68;11.68;;;;;;;19.73;48.86;99496.16;5085927;28;20024;-75
2023/04/23 10:16:52;;;;;;;16.23;10.68;;;;;;;20.00;49.82;99492.25;5094978;28;20024;-75
2023/04/23 10:19:23;;;;;;;14.10;10.48;;;;;;;19.80;48.79;99483.22;5097045;28;20032;-75
2023/04/23 10:21:54;;;;;;;15.40;11.40;;;;;;;18.91;52.32;99480.97;5109713;28;20024;-75
2023/04/23 10:24:23;;;;;;;11.77;10.57;;;;;;;19.06;49.24;99476.28;5090650;28;20031;-74
2023/04/23 10:26:52;;;;;;;13.90;11.07;;;;;;;18.75;49.56;99472.75;5095487;28;20032;-74
2023/04/23 10:29:25;;;;;;;13.23;10.68;;;;;;;19.04;49.71;99467.38;5086897;28;20027;-74
2023/04/23 10:31:52;;;;;;;15.43;9.70;;;;;;;19.03;49.38;99468.56;5093319;28;20031;-73
2023/04/23 10:34:19;;;;;;;21.92;11.13;;;;;;;19.61;47.22;99459.63;5098904;28;20040;-75
2023/04/23 10:36:44;;;;;;;10.75;9.15;;;;;;;19.54;45.19;99460.38;5114578;28;20502;-74
2023/04/23 10:39:12;;;;;;;12.80;9.15;;;;;;;20.34;47.15;99453.00;5090278;28;20020;-75
2023/04/23 10:41:39;;;;;;;14.55;9.38;;;;;;;20.54;46.66;99444.13;5104179;28;20566;-75
2023/04/23 10:44:06;;;;;;;16.42;10.35;;;;;;;20.33;47.25;99448.56;5109058;28;20067;-75
2023/04/23 10:46:32;;;;;;;15.43;9.30;;;;;;;20.37;47.06;99447.75;5109161;28;20020;-76
2023/04/23 10:49:24;;;;;;;12.80;9.95;;;;;;;20.49;46.83;99447.34;5112141;28;20110;-74
2023/04/23 10:52:03;;;;;;;12.20;10.25;;;;;;;20.50;45.81;99437.63;5097528;27;20036;-75
2023/04/23 10:54:31;;;;;;;14.70;9.10;;;;;;;21.21;46.13;99425.84;5101051;28;20023;-75
2023/04/23 10:56:59;;;;;;;12.77;9.45;;;;;;;21.29;46.39;99425.41;5081232;28;20040;-74
2023/04/23 10:59:25;;;;;;;16.38;10.27;;;;;;;20.94;47.86;99426.31;5095435;28;20481;-74
2023/04/23 11:01:51;;;;;;;15.43;9.38;;;;;;;20.93;46.27;99422.63;5087614;28;20032;-74
2023/04/23 11:04:23;;;;;;;11.98;9.82;;;;;;;20.94;45.89;99423.47;5097802;28;20027;-74
2023/04/23 11:07:11;;;;;;;14.15;9.55;;;;;;;21.00;45.23;99422.63;5107020;28;20032;-74
2023/04/23 11:09:47;;;;;;;21.23;9.48;;;;;;;21.02;44.01;99420.19;5086191;28;20036;-73
2023/04/23 11:12:31;;;;;;;17.10;8.20;;;;;;;20.97;41.94;99416.94;5099032;28;20100;-75
2023/04/23 11:15:13;;;;;;;12.38;7.97;;;;;;;20.95;44.27;99414.53;5098365;28;20490;-77
2023/04/23 11:17:38;;;;;;;10.10;8.18;;;;;;;20.59;42.16;99415.31;5085963;28;20019;-75
2023/04/23 11:20:05;;;;;;;9.75;8.75;;;;;;;20.54;43.17;99412.88;5088819;28;20383;-74